Главная страница
METAR-TAF:

METAR-TAF

Аэропорты :

Fort Liard, Северо-Западные Территории, Канада

широта: 60-14N, долгота: 123-29W, высота над уровнем моря: 215 м

Текущие метеонаблюдения

Эта сводка был подготовлена 44 минут назад, в 19:00 UTC
Ветер 9 Узел от северо-восточный
Температура 7°C
Влажность 42%
Давление 1022 hPa
Видимость: 24.1 км
небольшая облачность на высоте 22000 фута
Отдельные облака на высоте 24000 фута

METAR: CYJF 181900Z 05009KT 15SM FEW220 SCT240 07/M05 A3017 RMK CI1CI3 CI TR SLP229

Время: 13:44 (19:44 UTC)


TAF: отсутствует

Метеонаблюдения и прогнозы для более 4000 аэропортов (сводки METAR и TAF).

Имеющиеся станции представлены на карте желтыми и красными точками.

Чтобы увидеть название станции, наведите на нее мышь.

Затем щелкните, чтобы увидеть метеонаблюдения и метеопрогнозы.

Управление картой: чтобы увеличить масштаб, щелкните зеленые кнопки с черным крестиком; чтобы уменьшить масштаб, щелкните зеленую кнопку с тире; для просмотра соседних карт щелкайте зеленые стрелки.


METAR-TAF: